createdAt,value
2018-04-18T00:00:55.698Z,13.02
2018-04-18T00:03:06.804Z,12.98
2018-04-18T00:05:17.955Z,12.93
2018-04-18T00:07:29.042Z,12.90
2018-04-18T00:09:40.197Z,12.89
2018-04-18T00:11:51.285Z,12.92
2018-04-18T00:14:02.359Z,12.88
2018-04-18T00:16:13.528Z,12.77
2018-04-18T00:18:24.634Z,12.75
2018-04-18T00:20:35.781Z,12.69
2018-04-18T00:22:46.870Z,12.65
2018-04-18T00:24:57.973Z,12.67
2018-04-18T00:27:09.046Z,12.68
2018-04-18T00:29:20.114Z,12.66
2018-04-18T00:31:31.250Z,12.61
2018-04-18T00:33:42.298Z,12.57
2018-04-18T00:35:53.538Z,12.53
2018-04-18T00:38:04.626Z,12.47
2018-04-18T00:40:15.755Z,12.42
2018-04-18T00:42:26.991Z,12.39
2018-04-18T00:44:38.053Z,12.40
2018-04-18T00:46:49.134Z,12.45
2018-04-18T00:49:00.226Z,12.46
2018-04-18T00:51:11.382Z,12.42
2018-04-18T00:53:22.426Z,12.42
2018-04-18T00:55:33.567Z,12.43
2018-04-18T00:57:44.674Z,12.44
2018-04-18T00:59:55.886Z,12.45
2018-04-18T01:02:06.992Z,12.40
2018-04-18T01:04:18.081Z,12.34
2018-04-18T01:06:29.149Z,12.26
2018-04-18T01:08:40.273Z,12.25
2018-04-18T01:10:51.357Z,12.18
2018-04-18T01:13:02.454Z,12.08
2018-04-18T01:15:13.746Z,12.03
2018-04-18T01:17:24.847Z,11.95
2018-04-18T01:19:35.998Z,11.96
2018-04-18T01:21:47.086Z,11.94
2018-04-18T01:23:58.205Z,11.92
2018-04-18T01:26:09.273Z,11.88
2018-04-18T01:28:20.373Z,11.78
2018-04-18T01:30:31.450Z,11.75
2018-04-18T01:32:42.521Z,11.75
2018-04-18T01:34:53.659Z,11.78
2018-04-18T01:37:04.710Z,11.75
2018-04-18T01:39:15.945Z,11.72
2018-04-18T01:41:27.033Z,11.64
2018-04-18T01:43:38.090Z,11.57
2018-04-18T01:45:49.165Z,11.54
2018-04-18T01:48:00.302Z,11.48
2018-04-18T01:50:11.478Z,11.44
2018-04-18T01:52:22.569Z,11.42
2018-04-18T01:54:33.754Z,11.40
2018-04-18T01:56:44.840Z,11.37
2018-04-18T01:58:55.974Z,11.35
2018-04-18T02:01:07.101Z,11.34
2018-04-18T02:03:18.186Z,11.32
2018-04-18T02:05:29.333Z,11.29
2018-04-18T02:07:40.432Z,11.26
2018-04-18T02:09:51.595Z,11.23
2018-04-18T02:12:02.712Z,11.27
2018-04-18T02:14:13.846Z,11.29
2018-04-18T02:16:24.933Z,11.26
2018-04-18T02:18:36.193Z,11.22
2018-04-18T02:20:47.237Z,11.16
2018-04-18T02:22:58.314Z,11.15
2018-04-18T02:25:09.411Z,11.15
2018-04-18T02:27:20.494Z,11.12
2018-04-18T02:29:31.654Z,11.15
2018-04-18T02:31:42.778Z,11.14
2018-04-18T02:33:53.958Z,11.11
2018-04-18T02:36:05.002Z,11.09
2018-04-18T02:38:16.218Z,11.07
2018-04-18T02:40:27.296Z,11.04
2018-04-18T02:42:38.415Z,11.02
2018-04-18T02:44:49.518Z,10.97
2018-04-18T02:47:00.591Z,10.91
2018-04-18T02:49:11.925Z,10.85
2018-04-18T02:51:22.986Z,10.84
2018-04-18T02:53:34.158Z,10.87
2018-04-18T02:55:45.193Z,10.85
2018-04-18T02:57:56.265Z,10.81
2018-04-18T03:00:07.342Z,10.79
2018-04-18T03:02:18.379Z,10.74
2018-04-18T03:04:29.532Z,10.69
2018-04-18T03:06:40.616Z,10.70
2018-04-18T03:08:51.823Z,10.72
2018-04-18T03:11:02.884Z,10.67
2018-04-18T03:13:14.057Z,10.68
2018-04-18T03:15:25.162Z,10.65
2018-04-18T03:17:36.232Z,10.65
2018-04-18T03:19:47.305Z,10.66
2018-04-18T03:21:58.414Z,10.69
2018-04-18T03:24:09.492Z,10.65
2018-04-18T03:26:20.650Z,10.52
2018-04-18T03:28:31.745Z,10.42
2018-04-18T03:30:42.835Z,10.40
2018-04-18T03:32:53.918Z,10.39
2018-04-18T03:35:05.015Z,10.40
2018-04-18T03:37:16.121Z,10.42
2018-04-18T03:39:27.218Z,10.43
2018-04-18T03:41:38.302Z,10.46
2018-04-18T03:43:49.352Z,10.46
2018-04-18T03:46:00.539Z,10.46
2018-04-18T03:48:11.578Z,10.40
2018-04-18T03:50:22.682Z,10.37
2018-04-18T03:52:33.770Z,10.35
2018-04-18T03:54:45.689Z,10.31
2018-04-18T03:56:56.765Z,10.28
2018-04-18T03:59:07.822Z,10.23
2018-04-18T04:01:18.885Z,10.19
2018-04-18T04:03:30.038Z,10.19
2018-04-18T04:05:41.127Z,10.18
2018-04-18T04:07:52.273Z,10.15
2018-04-18T04:10:03.352Z,10.09
2018-04-18T04:12:14.466Z,10.10
2018-04-18T04:14:25.526Z,10.04
2018-04-18T04:16:48.945Z,9.96
2018-04-18T04:19:12.154Z,9.99
2018-04-18T04:21:35.341Z,10.02
2018-04-18T04:23:58.602Z,10.03
2018-04-18T04:26:09.662Z,10.01
2018-04-18T04:28:20.738Z,10.01
2018-04-18T04:30:31.825Z,10.03
2018-04-18T04:32:42.945Z,10.05
2018-04-18T04:34:54.120Z,10.08
2018-04-18T04:37:05.251Z,10.12
2018-04-18T04:39:16.381Z,10.11
2018-04-18T04:41:27.471Z,10.10
2018-04-18T04:43:38.607Z,10.24
2018-04-18T04:45:49.686Z,10.36
2018-04-18T04:48:00.757Z,10.42
2018-04-18T04:50:11.866Z,10.38
2018-04-18T04:52:22.991Z,10.39
2018-04-18T04:54:34.125Z,10.46
2018-04-18T04:56:45.204Z,10.55
2018-04-18T04:58:56.274Z,10.63
2018-04-18T05:01:07.375Z,10.74
2018-04-18T05:03:18.417Z,10.82
2018-04-18T05:05:29.586Z,10.89
2018-04-18T05:07:40.672Z,11.06
2018-04-18T05:09:51.819Z,11.31
2018-04-18T05:12:02.903Z,11.54
2018-04-18T05:14:14.031Z,11.74
2018-04-18T05:16:25.098Z,11.93
2018-04-18T05:18:36.188Z,12.04
2018-04-18T05:20:47.306Z,12.16
2018-04-18T05:22:58.411Z,12.31
2018-04-18T05:25:09.537Z,12.58
2018-04-18T05:27:20.630Z,12.88
2018-04-18T05:29:31.714Z,13.08
2018-04-18T05:31:43.009Z,13.21
2018-04-18T05:33:54.327Z,13.32
2018-04-18T05:36:05.429Z,13.46
2018-04-18T05:38:16.616Z,13.62
2018-04-18T05:40:27.689Z,13.82
2018-04-18T05:42:38.821Z,14.01
2018-04-18T05:44:49.955Z,14.25
2018-04-18T05:47:01.012Z,14.52
2018-04-18T05:49:12.213Z,14.74
2018-04-18T05:51:23.321Z,15.10
2018-04-18T05:53:34.496Z,15.54
2018-04-18T05:55:45.769Z,16.01
2018-04-18T05:57:56.927Z,16.40
2018-04-18T06:00:08.002Z,16.71
2018-04-18T06:02:19.114Z,16.99
2018-04-18T06:04:30.250Z,17.28
2018-04-18T06:06:41.322Z,17.53
2018-04-18T06:08:52.475Z,17.87
2018-04-18T06:11:03.546Z,18.16
2018-04-18T06:13:14.826Z,18.35
2018-04-18T06:15:25.873Z,18.67
2018-04-18T06:17:37.138Z,18.96
2018-04-18T06:19:48.244Z,19.43
2018-04-18T06:21:59.382Z,19.84
2018-04-18T06:24:10.454Z,20.11
2018-04-18T06:26:21.538Z,20.33
2018-04-18T06:28:32.683Z,20.55
2018-04-18T06:30:43.818Z,20.77
2018-04-18T06:32:54.977Z,21.10
2018-04-18T06:35:06.327Z,21.22
2018-04-18T06:37:17.434Z,21.48
2018-04-18T06:39:28.590Z,21.72
2018-04-18T06:41:39.657Z,21.87
2018-04-18T06:43:50.887Z,21.98
2018-04-18T06:46:01.974Z,22.13
2018-04-18T06:48:13.098Z,22.39
2018-04-18T06:50:24.239Z,22.60
2018-04-18T06:52:35.386Z,22.67
2018-04-18T06:54:46.550Z,22.90
2018-04-18T06:56:57.614Z,23.00
2018-04-18T06:59:08.822Z,23.11
2018-04-18T07:01:19.940Z,23.18
2018-04-18T07:03:31.006Z,23.36
2018-04-18T07:05:42.135Z,23.37
2018-04-18T07:07:53.226Z,23.46
2018-04-18T07:10:04.342Z,23.51
2018-04-18T07:12:15.472Z,23.56
2018-04-18T07:14:26.615Z,23.66
2018-04-18T07:16:37.698Z,23.71
2018-04-18T07:18:48.778Z,23.97
2018-04-18T07:20:59.886Z,24.19
2018-04-18T07:23:10.959Z,24.23
2018-04-18T07:25:22.026Z,24.34
2018-04-18T07:27:33.159Z,24.66
2018-04-18T07:29:44.249Z,24.92
2018-04-18T07:31:55.325Z,25.07
2018-04-18T07:34:06.515Z,25.27
2018-04-18T07:36:17.596Z,25.42
2018-04-18T07:38:28.718Z,25.59
2018-04-18T07:40:39.802Z,25.82
2018-04-18T07:42:50.946Z,26.02
2018-04-18T07:45:02.022Z,26.10
2018-04-18T07:47:13.132Z,26.22
2018-04-18T07:49:24.276Z,26.31
2018-04-18T07:51:35.338Z,26.45
2018-04-18T07:53:46.440Z,26.56
2018-04-18T07:55:57.542Z,26.54
2018-04-18T07:58:08.710Z,26.49
2018-04-18T08:00:19.821Z,26.59
2018-04-18T08:02:30.932Z,26.54
2018-04-18T08:04:42.038Z,26.48
2018-04-18T08:06:53.302Z,26.46
2018-04-18T08:09:05.223Z,26.40
2018-04-18T08:11:16.349Z,26.47
2018-04-18T08:13:27.417Z,26.48
2018-04-18T08:15:38.572Z,26.67
2018-04-18T08:17:49.675Z,26.57
2018-04-18T08:20:00.818Z,26.55
2018-04-18T08:22:11.911Z,26.63
2018-04-18T08:24:23.069Z,26.76
2018-04-18T08:26:34.205Z,26.75
2018-04-18T08:28:45.287Z,26.80
2018-04-18T08:30:56.369Z,26.75
2018-04-18T08:33:07.431Z,26.77
2018-04-18T08:35:18.619Z,26.91
2018-04-18T08:37:29.802Z,26.96
2018-04-18T08:39:40.938Z,26.91
2018-04-18T08:41:52.049Z,26.86
2018-04-18T08:44:03.206Z,26.77
2018-04-18T08:46:14.322Z,26.87
2018-04-18T08:48:25.440Z,26.96
2018-04-18T08:50:36.466Z,26.95
2018-04-18T08:52:47.594Z,27.19
2018-04-18T08:54:58.821Z,27.27
2018-04-18T08:57:09.933Z,27.13
2018-04-18T08:59:21.161Z,27.16
2018-04-18T09:01:32.300Z,27.33
2018-04-18T09:03:43.594Z,27.25
2018-04-18T09:05:54.703Z,27.14
2018-04-18T09:08:05.836Z,27.12
2018-04-18T09:10:16.998Z,27.16
2018-04-18T09:12:28.110Z,27.25
2018-04-18T09:14:39.229Z,27.13
2018-04-18T09:16:50.294Z,27.15
2018-04-18T09:19:01.496Z,27.27
2018-04-18T09:21:12.713Z,27.08
2018-04-18T09:23:23.839Z,27.25
2018-04-18T09:25:35.030Z,27.19
2018-04-18T09:27:46.175Z,27.24
2018-04-18T09:29:57.405Z,27.39
2018-04-18T09:32:08.471Z,27.45
2018-04-18T09:34:19.572Z,27.51
2018-04-18T09:36:30.666Z,27.58
2018-04-18T09:38:41.750Z,27.68
2018-04-18T09:40:52.976Z,27.66
2018-04-18T09:43:04.069Z,27.53
2018-04-18T09:45:15.343Z,27.41
2018-04-18T09:47:26.406Z,27.42
2018-04-18T09:49:37.554Z,27.34
2018-04-18T09:51:48.638Z,27.24
2018-04-18T09:53:59.753Z,27.26
2018-04-18T09:56:10.817Z,27.37
2018-04-18T09:58:21.943Z,27.34
2018-04-18T10:00:39.089Z,27.41
2018-04-18T10:02:56.155Z,27.47
2018-04-18T10:05:07.395Z,27.58
2018-04-18T10:07:18.477Z,27.49
2018-04-18T10:09:29.753Z,27.53
2018-04-18T10:11:40.897Z,27.52
2018-04-18T10:13:52.018Z,27.41
2018-04-18T10:16:03.125Z,27.31
2018-04-18T10:18:14.223Z,27.28
2018-04-18T10:20:25.293Z,27.16
2018-04-18T10:22:36.414Z,27.10
2018-04-18T10:24:47.653Z,27.18
2018-04-18T10:26:58.791Z,27.27
2018-04-18T10:29:09.949Z,27.34
2018-04-18T10:31:21.160Z,27.50
2018-04-18T10:33:32.266Z,27.71
2018-04-18T10:35:43.487Z,27.77
2018-04-18T10:37:54.603Z,27.76
2018-04-18T10:40:05.710Z,27.80
2018-04-18T10:42:16.777Z,27.56
2018-04-18T10:44:27.892Z,26.94
2018-04-18T10:46:38.976Z,26.77
2018-04-18T10:48:50.157Z,26.79
2018-04-18T10:51:01.387Z,26.82
2018-04-18T10:53:12.453Z,26.90
2018-04-18T10:55:23.615Z,26.96
2018-04-18T10:57:34.710Z,26.90
2018-04-18T10:59:45.827Z,26.73
2018-04-18T11:01:56.891Z,26.79
2018-04-18T11:04:08.081Z,26.86
2018-04-18T11:06:19.245Z,26.78
2018-04-18T11:08:30.379Z,26.78
2018-04-18T11:10:41.674Z,26.73
2018-04-18T11:12:52.747Z,26.74
2018-04-18T11:15:03.905Z,26.76
2018-04-18T11:17:14.999Z,26.77
2018-04-18T11:19:26.136Z,26.91
2018-04-18T11:21:37.221Z,26.94
2018-04-18T11:23:48.341Z,27.03
2018-04-18T11:25:59.490Z,27.02
2018-04-18T11:28:10.558Z,27.14
2018-04-18T11:30:21.706Z,27.12
2018-04-18T11:32:32.799Z,27.13
2018-04-18T11:34:44.310Z,27.06
2018-04-18T11:36:55.458Z,27.05
2018-04-18T11:39:06.558Z,26.92
2018-04-18T11:41:17.856Z,26.87
2018-04-18T11:43:28.957Z,26.98
2018-04-18T11:45:40.014Z,27.01
2018-04-18T11:47:51.178Z,26.95
2018-04-18T11:50:02.274Z,27.03
2018-04-18T11:52:13.435Z,27.16
2018-04-18T11:54:24.549Z,27.14
2018-04-18T11:56:35.681Z,27.09
2018-04-18T11:58:46.830Z,27.05
2018-04-18T12:00:58.042Z,26.93
2018-04-18T12:03:09.142Z,26.88
2018-04-18T12:05:20.239Z,26.89
2018-04-18T12:07:31.330Z,26.95
2018-04-18T12:09:42.424Z,26.93
2018-04-18T12:11:53.617Z,27.01
2018-04-18T12:14:04.783Z,26.89
2018-04-18T12:16:16.022Z,26.91
2018-04-18T12:18:27.261Z,26.79
2018-04-18T12:20:38.362Z,26.79
2018-04-18T12:22:49.712Z,26.72
2018-04-18T12:25:00.782Z,26.63
2018-04-18T12:27:12.055Z,26.60
2018-04-18T12:29:23.157Z,26.55
2018-04-18T12:31:34.226Z,26.52
2018-04-18T12:33:45.370Z,26.51
2018-04-18T12:35:56.438Z,26.56
2018-04-18T12:38:07.571Z,26.53
2018-04-18T12:40:18.651Z,26.45
2018-04-18T12:42:29.757Z,26.38
2018-04-18T12:44:40.853Z,26.25
2018-04-18T12:46:52.082Z,26.21
2018-04-18T12:49:03.217Z,26.12
2018-04-18T12:51:14.273Z,26.17
2018-04-18T12:53:25.372Z,26.22
2018-04-18T12:55:36.493Z,26.23
2018-04-18T12:57:47.628Z,26.31
2018-04-18T12:59:58.737Z,26.27
2018-04-18T13:02:09.927Z,26.28
2018-04-18T13:04:21.006Z,26.25
2018-04-18T13:06:32.127Z,26.21
2018-04-18T13:08:43.222Z,26.04
2018-04-18T13:10:54.359Z,26.04
2018-04-18T13:13:05.429Z,26.10
2018-04-18T13:15:16.517Z,26.08
2018-04-18T13:17:27.705Z,26.08
2018-04-18T13:19:38.867Z,25.99
2018-04-18T13:21:50.090Z,26.01
2018-04-18T13:24:01.189Z,26.00
2018-04-18T13:26:12.292Z,26.04
2018-04-18T13:28:23.385Z,26.08
2018-04-18T13:30:34.474Z,25.96
2018-04-18T13:32:45.553Z,25.97
2018-04-18T13:34:56.638Z,25.96
2018-04-18T13:37:07.833Z,25.90
2018-04-18T13:39:19.873Z,25.87
2018-04-18T13:41:30.951Z,25.87
2018-04-18T13:43:42.118Z,25.86
2018-04-18T13:45:53.218Z,25.88
2018-04-18T13:48:04.322Z,25.91
2018-04-18T13:50:15.434Z,25.98
2018-04-18T13:52:26.503Z,25.96
2018-04-18T13:54:37.590Z,25.90
2018-04-18T13:56:48.661Z,25.79
2018-04-18T13:58:59.802Z,25.82
2018-04-18T14:01:10.941Z,25.84
2018-04-18T14:03:22.175Z,25.92
2018-04-18T14:05:33.259Z,25.85
2018-04-18T14:07:44.374Z,25.78
2018-04-18T14:09:55.464Z,25.79
2018-04-18T14:12:06.674Z,25.84
2018-04-18T14:14:17.872Z,25.88
2018-04-18T14:16:29.014Z,25.86
2018-04-18T14:18:40.086Z,25.77
2018-04-18T14:20:51.243Z,25.74
2018-04-18T14:23:02.439Z,25.73
2018-04-18T14:25:13.517Z,25.74
2018-04-18T14:27:24.666Z,25.72
2018-04-18T14:29:35.734Z,25.74
2018-04-18T14:31:46.871Z,25.85
2018-04-18T14:33:57.985Z,25.85
2018-04-18T14:36:09.075Z,25.83
2018-04-18T14:38:20.229Z,25.72
2018-04-18T14:40:31.323Z,25.67
2018-04-18T14:42:42.582Z,25.72
2018-04-18T14:44:53.683Z,25.72
2018-04-18T14:47:04.844Z,25.73
2018-04-18T14:49:16.115Z,25.73
2018-04-18T14:51:27.186Z,25.71
2018-04-18T14:53:38.395Z,25.68
2018-04-18T14:55:49.452Z,25.66
2018-04-18T14:58:00.581Z,25.64
2018-04-18T15:00:11.659Z,25.56
2018-04-18T15:02:22.730Z,25.63
2018-04-18T15:04:33.859Z,25.64
2018-04-18T15:06:44.983Z,25.61
2018-04-18T15:08:56.105Z,25.60
2018-04-18T15:11:07.278Z,25.60
2018-04-18T15:13:18.365Z,25.59
2018-04-18T15:15:29.462Z,25.60
2018-04-18T15:17:40.540Z,25.58
2018-04-18T15:19:51.617Z,25.61
2018-04-18T15:22:02.685Z,25.58
2018-04-18T15:24:13.812Z,25.53
2018-04-18T15:26:24.960Z,25.56
2018-04-18T15:28:36.086Z,25.56
2018-04-18T15:30:47.154Z,25.59
2018-04-18T15:32:58.254Z,25.66
2018-04-18T15:35:09.345Z,25.65
2018-04-18T15:37:20.499Z,25.64
2018-04-18T15:39:31.581Z,25.62
2018-04-18T15:41:42.692Z,25.61
2018-04-18T15:43:53.786Z,25.56
2018-04-18T15:46:05.059Z,25.55
2018-04-18T15:48:16.242Z,25.55
2018-04-18T15:50:27.357Z,25.58
2018-04-18T15:52:38.488Z,25.55
2018-04-18T15:54:49.587Z,25.46
2018-04-18T15:57:00.665Z,25.42
2018-04-18T15:59:11.771Z,25.41
2018-04-18T16:01:22.878Z,25.42
2018-04-18T16:03:34.091Z,25.39
2018-04-18T16:05:45.151Z,25.43
2018-04-18T16:07:56.242Z,25.38
2018-04-18T16:10:07.358Z,25.35
2018-04-18T16:12:18.473Z,25.31
2018-04-18T16:14:29.563Z,25.28
2018-04-18T16:16:40.682Z,25.27
2018-04-18T16:18:51.786Z,25.32
2018-04-18T16:21:02.994Z,25.26
2018-04-18T16:23:14.161Z,25.27
2018-04-18T16:25:25.341Z,25.28
2018-04-18T16:27:36.542Z,25.28
2018-04-18T16:29:47.624Z,25.27
2018-04-18T16:31:58.794Z,25.22
2018-04-18T16:34:09.851Z,25.18
2018-04-18T16:36:20.925Z,25.11
2018-04-18T16:38:32.019Z,25.13
2018-04-18T16:40:43.205Z,25.15
2018-04-18T16:42:54.356Z,25.15
2018-04-18T16:45:05.429Z,25.14
2018-04-18T16:47:16.638Z,25.11
2018-04-18T16:49:27.695Z,25.09
2018-04-18T16:51:38.813Z,25.05
2018-04-18T16:53:49.915Z,25.05
2018-04-18T16:56:01.054Z,24.99
2018-04-18T16:58:12.142Z,24.96
2018-04-18T17:00:23.212Z,25.02
2018-04-18T17:02:34.466Z,25.03
2018-04-18T17:04:45.553Z,24.98
2018-04-18T17:06:56.821Z,24.93
2018-04-18T17:09:07.967Z,24.91
2018-04-18T17:11:19.046Z,24.88
2018-04-18T17:13:30.150Z,24.88
2018-04-18T17:15:41.226Z,24.86
2018-04-18T17:17:52.358Z,24.83
2018-04-18T17:20:03.488Z,24.82
2018-04-18T17:22:14.643Z,24.78
2018-04-18T17:24:25.821Z,24.77
2018-04-18T17:26:37.010Z,24.72
2018-04-18T17:28:48.206Z,24.64
2018-04-18T17:30:59.270Z,24.59
2018-04-18T17:33:10.381Z,24.48
2018-04-18T17:35:21.458Z,24.37
2018-04-18T17:37:32.579Z,24.31
2018-04-18T17:39:43.657Z,24.27
2018-04-18T17:41:54.860Z,24.21
2018-04-18T17:44:05.961Z,24.16
2018-04-18T17:46:17.130Z,24.13
2018-04-18T17:48:28.242Z,24.07
2018-04-18T17:50:39.370Z,24.05
2018-04-18T17:52:50.473Z,24.00
2018-04-18T17:55:01.614Z,23.93
2018-04-18T17:57:12.681Z,23.82
2018-04-18T17:59:23.741Z,23.73
2018-04-18T18:01:34.919Z,23.67
2018-04-18T18:03:46.050Z,23.59
2018-04-18T18:05:57.412Z,23.52
2018-04-18T18:08:08.525Z,23.49
2018-04-18T18:10:19.678Z,23.42
2018-04-18T18:12:30.788Z,23.35
2018-04-18T18:14:41.907Z,23.30
2018-04-18T18:16:52.995Z,23.22
2018-04-18T18:19:04.042Z,23.13
2018-04-18T18:21:15.191Z,22.98
2018-04-18T18:23:26.426Z,22.83
2018-04-18T18:25:37.531Z,22.72
2018-04-18T18:27:48.630Z,22.57
2018-04-18T18:29:59.699Z,22.45
2018-04-18T18:32:10.830Z,22.34
2018-04-18T18:34:21.958Z,22.19
2018-04-18T18:36:33.112Z,22.00
2018-04-18T18:38:44.226Z,21.79
2018-04-18T18:40:55.496Z,21.59
2018-04-18T18:43:06.716Z,21.41
2018-04-18T18:45:17.774Z,21.23
2018-04-18T18:47:28.921Z,21.08
2018-04-18T18:49:40.022Z,20.93
2018-04-18T18:51:51.194Z,20.69
2018-04-18T18:54:02.325Z,20.56
2018-04-18T18:56:13.407Z,20.44
2018-04-18T18:58:24.582Z,20.28
2018-04-18T19:00:35.636Z,20.17
2018-04-18T19:02:46.754Z,19.98
2018-04-18T19:04:57.910Z,19.82
2018-04-18T19:07:09.058Z,19.63
2018-04-18T19:09:20.212Z,19.47
2018-04-18T19:11:31.329Z,19.35
2018-04-18T19:13:42.417Z,19.25
2018-04-18T19:15:53.507Z,19.14
2018-04-18T19:18:04.627Z,19.04
2018-04-18T19:20:15.770Z,18.95
2018-04-18T19:22:26.907Z,18.92
2018-04-18T19:24:38.067Z,18.81
2018-04-18T19:26:49.328Z,18.72
2018-04-18T19:29:00.437Z,18.60
2018-04-18T19:31:11.651Z,18.48
2018-04-18T19:33:22.729Z,18.33
2018-04-18T19:35:33.890Z,18.26
2018-04-18T19:37:44.982Z,18.16
2018-04-18T19:39:56.040Z,18.09
2018-04-18T19:42:07.180Z,18.10
2018-04-18T19:44:18.527Z,18.09
2018-04-18T19:46:29.708Z,18.02
2018-04-18T19:48:40.839Z,18.01
2018-04-18T19:50:52.002Z,17.97
2018-04-18T19:53:03.290Z,17.96
2018-04-18T19:55:14.426Z,17.91
2018-04-18T19:57:25.622Z,17.82
2018-04-18T19:59:36.706Z,17.77
2018-04-18T20:01:47.840Z,17.70
2018-04-18T20:03:58.966Z,17.70
2018-04-18T20:06:10.049Z,17.69
2018-04-18T20:08:21.211Z,17.63
2018-04-18T20:10:32.289Z,17.52
2018-04-18T20:12:44.396Z,17.40
2018-04-18T20:14:55.556Z,17.35
2018-04-18T20:17:06.677Z,17.27
2018-04-18T20:19:17.873Z,17.21
2018-04-18T20:21:32.094Z,17.18
2018-04-18T20:23:43.270Z,17.17
2018-04-18T20:25:54.407Z,17.16
2018-04-18T20:28:05.566Z,17.11
2018-04-18T20:30:16.646Z,17.06
2018-04-18T20:32:27.774Z,17.05
2018-04-18T20:34:38.987Z,17.01
2018-04-18T20:36:50.230Z,17.00
2018-04-18T20:39:01.593Z,16.96
2018-04-18T20:41:12.698Z,16.92
2018-04-18T20:43:23.985Z,16.89
2018-04-18T20:45:35.085Z,16.87
2018-04-18T20:47:46.255Z,16.90
2018-04-18T20:49:57.374Z,16.92
2018-04-18T20:52:08.451Z,16.94
2018-04-18T20:54:19.569Z,16.86
2018-04-18T20:56:30.763Z,16.76
2018-04-18T20:58:42.357Z,16.68
2018-04-18T21:00:53.601Z,16.60
2018-04-18T21:03:04.699Z,16.58
2018-04-18T21:05:15.922Z,16.61
2018-04-18T21:07:27.126Z,16.53
2018-04-18T21:09:38.329Z,16.37
2018-04-18T21:11:49.449Z,16.21
2018-04-18T21:14:00.518Z,16.11
2018-04-18T21:16:11.605Z,16.02
2018-04-18T21:18:22.714Z,15.90
2018-04-18T21:20:33.796Z,15.80
2018-04-18T21:22:44.887Z,15.76
2018-04-18T21:24:56.021Z,15.75
2018-04-18T21:27:07.205Z,15.77
2018-04-18T21:29:18.311Z,15.78
2018-04-18T21:31:29.508Z,15.82
2018-04-18T21:33:40.570Z,15.79
2018-04-18T21:35:51.632Z,15.81
2018-04-18T21:38:02.726Z,15.81
2018-04-18T21:40:13.794Z,15.81
2018-04-18T21:42:24.851Z,15.82
2018-04-18T21:44:36.011Z,15.80
2018-04-18T21:46:47.118Z,15.83
2018-04-18T21:48:58.174Z,15.86
2018-04-18T21:51:09.285Z,15.89
2018-04-18T21:53:20.398Z,15.88
2018-04-18T21:55:31.490Z,15.84
2018-04-18T21:57:42.584Z,15.82
2018-04-18T21:59:53.770Z,15.77
2018-04-18T22:02:04.836Z,15.65
2018-04-18T22:04:16.021Z,15.60
2018-04-18T22:06:27.122Z,15.61
2018-04-18T22:08:38.274Z,15.69
2018-04-18T22:10:49.377Z,15.83
2018-04-18T22:13:00.429Z,15.93
2018-04-18T22:15:11.512Z,16.01
2018-04-18T22:17:22.583Z,16.07
2018-04-18T22:19:33.702Z,16.11
2018-04-18T22:21:44.775Z,16.04
2018-04-18T22:23:55.867Z,16.01
2018-04-18T22:26:06.969Z,15.95
2018-04-18T22:28:18.125Z,15.90
2018-04-18T22:30:29.181Z,15.87
2018-04-18T22:32:40.289Z,15.79
2018-04-18T22:34:51.401Z,15.70
2018-04-18T22:37:02.530Z,15.63
2018-04-18T22:39:13.645Z,15.61
2018-04-18T22:41:24.793Z,15.57
2018-04-18T22:43:35.996Z,15.55
2018-04-18T22:45:47.042Z,15.53
2018-04-18T22:47:58.129Z,15.51
2018-04-18T22:50:09.238Z,15.45
2018-04-18T22:52:20.318Z,15.34
2018-04-18T22:54:31.425Z,15.23
2018-04-18T22:56:42.545Z,15.21
2018-04-18T22:58:53.681Z,15.16
2018-04-18T23:01:04.773Z,15.14
2018-04-18T23:03:15.857Z,15.15
2018-04-18T23:05:26.931Z,15.12
2018-04-18T23:07:38.017Z,15.10
2018-04-18T23:09:49.093Z,15.07
2018-04-18T23:12:00.213Z,15.00
2018-04-18T23:14:11.340Z,14.96
2018-04-18T23:16:22.475Z,14.97
2018-04-18T23:18:33.557Z,15.08
2018-04-18T23:20:44.704Z,15.14
2018-04-18T23:22:55.790Z,15.27
2018-04-18T23:25:06.859Z,15.46
2018-04-18T23:27:17.902Z,15.44
2018-04-18T23:29:29.027Z,15.43
2018-04-18T23:31:40.221Z,15.38
2018-04-18T23:33:51.297Z,15.42
2018-04-18T23:36:02.453Z,15.48
2018-04-18T23:38:13.510Z,15.47
2018-04-18T23:40:24.615Z,15.39
2018-04-18T23:42:35.702Z,15.37
2018-04-18T23:44:46.746Z,15.36
2018-04-18T23:46:57.846Z,15.37
2018-04-18T23:49:08.881Z,15.41
2018-04-18T23:51:20.109Z,15.37
2018-04-18T23:53:31.233Z,15.38
2018-04-18T23:55:42.329Z,15.38
2018-04-18T23:57:53.377Z,15.44
